createdAt,value
2023-04-25T00:00:55.509Z,8.55
2023-04-25T00:03:22.675Z,6.60
2023-04-25T00:05:50.107Z,6.93
2023-04-25T00:08:17.256Z,8.77
2023-04-25T00:10:44.221Z,6.43
2023-04-25T00:13:12.469Z,7.55
2023-04-25T00:15:39.861Z,6.40
2023-04-25T00:18:09.902Z,8.65
2023-04-25T00:20:37.051Z,8.57
2023-04-25T00:23:04.025Z,8.15
2023-04-25T00:25:31.069Z,6.97
2023-04-25T00:27:58.153Z,10.95
2023-04-25T00:30:25.100Z,8.20
2023-04-25T00:32:52.122Z,8.60
2023-04-25T00:35:19.176Z,7.20
2023-04-25T00:37:46.428Z,7.93
2023-04-25T00:40:13.492Z,8.88
2023-04-25T00:42:41.598Z,7.43
2023-04-25T00:45:13.545Z,12.00
2023-04-25T00:47:41.529Z,10.02
2023-04-25T00:50:09.790Z,7.43
2023-04-25T00:52:39.500Z,6.90
2023-04-25T00:55:06.742Z,8.93
2023-04-25T00:57:33.942Z,12.02
2023-04-25T01:00:01.076Z,9.65
2023-04-25T01:02:29.824Z,9.50
2023-04-25T01:04:57.179Z,10.25
2023-04-25T01:07:24.177Z,20.52
2023-04-25T01:09:53.293Z,15.10
2023-04-25T01:12:20.947Z,10.05
2023-04-25T01:14:48.040Z,13.98
2023-04-25T01:17:15.983Z,13.20
2023-04-25T01:19:43.361Z,12.43
2023-04-25T01:22:11.553Z,7.65
2023-04-25T01:24:38.740Z,8.73
2023-04-25T01:27:05.882Z,12.20
2023-04-25T01:29:36.717Z,8.85
2023-04-25T01:32:04.972Z,11.55
2023-04-25T01:34:31.925Z,9.73
2023-04-25T01:37:02.295Z,9.52
2023-04-25T01:39:29.982Z,11.63
2023-04-25T01:41:57.720Z,10.25
2023-04-25T01:44:25.069Z,10.57
2023-04-25T01:46:52.298Z,9.70
2023-04-25T01:49:19.265Z,11.50
2023-04-25T01:51:46.425Z,9.93
2023-04-25T01:54:14.115Z,10.88
2023-04-25T01:56:41.285Z,10.27
2023-04-25T01:59:12.776Z,7.68
2023-04-25T02:02:05.966Z,8.68
2023-04-25T02:04:34.582Z,8.75
2023-04-25T02:07:03.174Z,10.10
2023-04-25T02:09:39.626Z,11.27
2023-04-25T02:12:10.747Z,9.98
2023-04-25T02:14:56.243Z,8.27
2023-04-25T02:17:38.727Z,10.18
2023-04-25T02:20:06.625Z,8.02
2023-04-25T02:22:35.003Z,10.52
2023-04-25T02:25:02.159Z,10.10
2023-04-25T02:27:29.169Z,8.27
2023-04-25T02:29:57.404Z,7.53
2023-04-25T02:32:24.431Z,8.00
2023-04-25T02:34:51.370Z,8.60
2023-04-25T02:37:18.342Z,8.90
2023-04-25T02:39:46.122Z,11.65
2023-04-25T02:42:13.138Z,7.90
2023-04-25T02:44:40.096Z,7.53
2023-04-25T02:47:07.194Z,7.97
2023-04-25T02:49:34.186Z,7.40
2023-04-25T02:52:01.235Z,8.25
2023-04-25T02:54:28.191Z,7.30
2023-04-25T02:56:55.994Z,6.22
2023-04-25T02:59:27.483Z,6.80
2023-04-25T03:01:54.574Z,7.75
2023-04-25T03:04:21.994Z,8.70
2023-04-25T03:06:49.161Z,9.48
2023-04-25T03:09:16.249Z,8.35
2023-04-25T03:11:44.971Z,8.55
2023-04-25T03:14:13.273Z,6.78
2023-04-25T03:16:40.571Z,9.32
2023-04-25T03:19:07.672Z,5.25
2023-04-25T03:21:36.728Z,6.30
2023-04-25T03:24:05.780Z,7.85
2023-04-25T03:26:32.812Z,5.45
2023-04-25T03:29:00.579Z,5.05
2023-04-25T03:31:28.289Z,6.88
2023-04-25T03:33:55.388Z,5.20
2023-04-25T03:36:23.932Z,5.70
2023-04-25T03:38:51.077Z,5.53
2023-04-25T03:41:19.111Z,11.35
2023-04-25T03:43:50.159Z,5.90
2023-04-25T03:46:17.871Z,6.72
2023-04-25T03:48:46.758Z,2.85
2023-04-25T03:51:20.580Z,2.88
2023-04-25T03:53:49.268Z,6.10
2023-04-25T03:56:31.771Z,4.63
2023-04-25T03:59:10.127Z,3.28
2023-04-25T04:01:37.139Z,6.75
2023-04-25T04:04:04.755Z,5.43
2023-04-25T04:06:33.028Z,2.13
2023-04-25T04:09:10.924Z,1.92
2023-04-25T04:11:40.411Z,2.22
2023-04-25T04:14:08.249Z,0.98
2023-04-25T04:16:36.393Z,1.80
2023-04-25T04:19:04.069Z,0.80
2023-04-25T04:21:32.933Z,0.93
2023-04-25T04:24:01.109Z,1.80
2023-04-25T04:26:32.956Z,0.80
2023-04-25T04:29:23.585Z,0.77
2023-04-25T04:32:02.092Z,0.77
2023-04-25T04:34:30.405Z,2.92
2023-04-25T04:36:57.992Z,1.17
2023-04-25T04:39:26.183Z,1.05
2023-04-25T04:42:12.490Z,1.10
2023-04-25T04:44:59.728Z,0.52
2023-04-25T04:47:47.208Z,1.48
2023-04-25T04:50:33.607Z,3.00
2023-04-25T04:53:20.364Z,2.10
2023-04-25T04:56:10.523Z,2.78
2023-04-25T04:59:09.749Z,2.42
2023-04-25T05:01:59.607Z,4.03
2023-04-25T05:04:46.823Z,3.05
2023-04-25T05:07:32.380Z,5.97
2023-04-25T05:10:25.546Z,6.63
2023-04-25T05:13:11.428Z,12.82
2023-04-25T05:15:58.194Z,9.13
2023-04-25T05:18:43.732Z,17.50
2023-04-25T05:21:29.270Z,13.10
2023-04-25T05:24:08.022Z,11.10
2023-04-25T05:26:54.130Z,5.75
2023-04-25T05:29:44.182Z,6.85
2023-04-25T05:32:27.746Z,7.38
2023-04-25T05:34:55.498Z,6.05
2023-04-25T05:37:28.920Z,2.83
2023-04-25T05:39:59.850Z,2.22
2023-04-25T05:42:36.052Z,5.00
2023-04-25T05:45:22.245Z,4.13
2023-04-25T05:47:54.796Z,3.60
2023-04-25T05:50:29.108Z,3.00
2023-04-25T05:53:01.228Z,2.88
2023-04-25T05:55:35.924Z,3.38
2023-04-25T05:58:16.685Z,3.28
2023-04-25T06:00:43.725Z,3.75
2023-04-25T06:03:10.994Z,2.13
2023-04-25T06:05:38.234Z,3.33
2023-04-25T06:08:05.472Z,2.15
2023-04-25T06:10:32.529Z,9.73
2023-04-25T06:12:59.547Z,3.90
2023-04-25T06:15:28.870Z,6.82
2023-04-25T06:17:57.026Z,3.88
2023-04-25T06:20:25.506Z,5.13
2023-04-25T06:22:54.446Z,5.75
2023-04-25T06:25:27.410Z,4.30
2023-04-25T06:27:55.538Z,2.65
2023-04-25T06:30:26.774Z,1.90
2023-04-25T06:32:58.925Z,4.03
2023-04-25T06:35:29.096Z,3.15
2023-04-25T06:37:56.207Z,4.28
2023-04-25T06:40:24.686Z,3.80
2023-04-25T06:42:52.050Z,2.38
2023-04-25T06:45:57.559Z,5.03
2023-04-25T06:48:28.582Z,2.45
2023-04-25T06:50:55.646Z,1.83
2023-04-25T06:53:23.909Z,3.20
2023-04-25T06:55:56.756Z,3.63
2023-04-25T06:58:24.851Z,3.03
2023-04-25T07:00:59.289Z,2.15
2023-04-25T07:03:27.295Z,5.15
2023-04-25T07:05:59.560Z,2.53
2023-04-25T07:08:26.552Z,4.75
2023-04-25T07:10:53.633Z,4.18
2023-04-25T07:13:21.020Z,2.03
2023-04-25T07:15:49.211Z,1.65
2023-04-25T07:18:18.015Z,2.47
2023-04-25T07:20:45.349Z,1.60
2023-04-25T07:23:13.487Z,3.00
2023-04-25T07:25:40.634Z,3.60
2023-04-25T07:28:08.477Z,0.88
2023-04-25T07:30:36.849Z,2.50
2023-04-25T07:33:04.890Z,2.40
2023-04-25T07:35:32.315Z,2.17
2023-04-25T07:38:00.209Z,1.65
2023-04-25T07:40:27.393Z,2.45
2023-04-25T07:42:59.716Z,2.78
2023-04-25T07:45:34.302Z,2.78
2023-04-25T07:48:02.517Z,4.03
2023-04-25T07:50:31.735Z,2.15
2023-04-25T11:37:16.219Z,2.33
2023-04-25T11:47:10.317Z,1.40
2023-04-25T11:49:37.348Z,1.33
2023-04-25T11:52:07.159Z,2.00
2023-04-25T11:54:37.282Z,2.00
2023-04-25T11:57:04.992Z,1.10
2023-04-25T11:59:32.023Z,3.08
2023-04-25T12:01:58.976Z,5.22
2023-04-25T12:04:26.457Z,3.10
2023-04-25T12:06:55.970Z,3.65
2023-04-25T12:09:31.465Z,1.30
2023-04-25T12:12:00.411Z,3.67
2023-04-25T12:14:29.909Z,1.50
2023-04-25T12:16:58.898Z,1.58
2023-04-25T12:19:27.024Z,1.83
2023-04-25T12:21:58.513Z,1.52
2023-04-25T12:24:28.434Z,3.00
2023-04-25T12:27:06.099Z,3.20
2023-04-25T12:29:48.691Z,3.15
2023-04-25T12:32:18.007Z,2.95
2023-04-25T12:34:45.924Z,2.90
2023-04-25T12:37:13.159Z,3.70
2023-04-25T12:39:46.578Z,3.35
2023-04-25T12:42:16.388Z,2.15
2023-04-25T12:44:43.343Z,2.58
2023-04-25T12:47:10.647Z,3.42
2023-04-25T12:49:37.895Z,4.50
2023-04-25T12:52:04.912Z,6.25
2023-04-25T12:54:32.195Z,5.20
2023-04-25T12:56:59.433Z,3.00
2023-04-25T12:59:26.386Z,2.60
2023-04-25T13:01:53.400Z,4.68
2023-04-25T13:04:22.170Z,2.60
2023-04-25T13:06:49.485Z,2.00
2023-04-25T13:09:16.678Z,3.15
2023-04-25T13:11:43.756Z,3.13
2023-04-25T13:14:11.279Z,2.55
2023-04-25T13:16:38.470Z,1.90
2023-04-25T13:19:06.579Z,2.60
2023-04-25T13:21:33.596Z,1.83
2023-04-25T13:24:00.815Z,2.15
2023-04-25T13:26:27.898Z,4.72
2023-04-25T13:28:54.851Z,6.28
2023-04-25T13:31:22.039Z,5.53
2023-04-25T13:33:49.293Z,4.57
2023-04-25T13:36:16.413Z,4.70
2023-04-25T13:38:45.131Z,4.68
2023-04-25T13:41:16.700Z,3.70
2023-04-25T13:43:43.697Z,2.83
2023-04-25T13:46:24.744Z,2.97
2023-04-25T13:49:06.273Z,1.52
2023-04-25T13:51:38.917Z,5.35
2023-04-25T13:54:05.991Z,3.03
2023-04-25T13:56:32.982Z,2.17
2023-04-25T13:58:59.926Z,1.95
2023-04-25T14:01:28.465Z,2.85
2023-04-25T14:03:55.569Z,8.43
2023-04-25T14:06:24.895Z,2.47
2023-04-25T14:08:51.946Z,4.13
2023-04-25T14:11:21.758Z,4.50
2023-04-25T14:13:50.303Z,2.33
2023-04-25T14:16:17.931Z,3.92
2023-04-25T14:18:45.138Z,2.83
2023-04-25T14:21:12.072Z,7.53
2023-04-25T14:23:39.092Z,3.30
2023-04-25T14:26:06.289Z,6.47
2023-04-25T14:28:33.386Z,5.57
2023-04-25T14:31:01.357Z,5.90
2023-04-25T14:33:28.331Z,6.90
2023-04-25T14:35:55.606Z,8.02
2023-04-25T14:38:24.297Z,4.47
2023-04-25T14:40:52.406Z,4.03
2023-04-25T14:43:19.312Z,3.97
2023-04-25T14:45:46.329Z,6.10
2023-04-25T14:48:13.572Z,4.07
2023-04-25T14:50:40.960Z,4.80
2023-04-25T14:53:07.954Z,4.60
2023-04-25T14:55:34.840Z,2.40
2023-04-25T14:58:02.113Z,2.88
2023-04-25T15:00:29.235Z,3.80
2023-04-25T15:02:57.074Z,3.80
2023-04-25T15:05:24.483Z,3.63
2023-04-25T15:07:51.603Z,1.25
2023-04-25T15:10:19.666Z,2.97
2023-04-25T15:12:49.694Z,1.60
2023-04-25T15:15:25.984Z,2.38
2023-04-25T15:17:59.258Z,3.33
2023-04-25T15:20:27.983Z,2.17
2023-04-25T15:22:55.661Z,2.28
2023-04-25T15:25:22.794Z,2.30
2023-04-25T15:27:50.546Z,1.70
2023-04-25T15:30:18.763Z,2.22
2023-04-25T15:32:47.205Z,2.72
2023-04-25T15:35:18.248Z,2.28
2023-04-25T15:37:46.305Z,6.28
2023-04-25T15:40:17.556Z,4.63
2023-04-25T15:42:51.592Z,1.58
2023-04-25T15:45:20.647Z,1.80
2023-04-25T15:47:48.320Z,2.10
2023-04-25T15:50:16.315Z,4.07
2023-04-25T15:52:43.794Z,2.35
2023-04-25T15:55:12.953Z,1.65
2023-04-25T15:57:42.144Z,1.50
2023-04-25T16:00:19.438Z,1.25
2023-04-25T16:02:50.364Z,1.58
2023-04-25T16:05:18.669Z,2.22
2023-04-25T16:07:48.733Z,1.33
2023-04-25T16:10:20.057Z,1.95
2023-04-25T16:12:50.612Z,4.65
2023-04-25T16:15:18.639Z,1.40
2023-04-25T16:17:45.825Z,2.95
2023-04-25T16:20:13.915Z,2.42
2023-04-25T16:22:42.632Z,2.33
2023-04-25T16:25:13.226Z,2.45
2023-04-25T16:27:43.041Z,2.45
2023-04-25T16:30:11.462Z,2.70
2023-04-25T16:32:39.966Z,3.25
2023-04-25T16:35:08.396Z,3.40
2023-04-25T16:37:35.691Z,2.40
2023-04-25T16:40:03.247Z,4.05
2023-04-25T16:42:30.386Z,4.18
2023-04-25T16:44:57.299Z,3.88
2023-04-25T16:47:25.339Z,3.17
2023-04-25T16:49:53.617Z,2.38
2023-04-25T16:52:23.623Z,2.85
2023-04-25T16:54:50.711Z,1.90
2023-04-25T16:57:17.970Z,2.55
2023-04-25T16:59:45.069Z,1.70
2023-04-25T17:02:13.384Z,4.65
2023-04-25T17:04:41.060Z,6.57
2023-04-25T17:07:08.988Z,6.43
2023-04-25T17:09:36.407Z,7.43
2023-04-25T17:12:04.641Z,7.72
2023-04-25T17:14:33.273Z,12.30
2023-04-25T17:17:00.626Z,4.30
2023-04-25T17:19:28.557Z,5.55
2023-04-25T17:22:00.729Z,3.63
2023-04-25T17:24:27.671Z,10.02
2023-04-25T17:26:56.498Z,11.35
2023-04-25T17:29:27.853Z,6.72
2023-04-25T17:31:57.008Z,3.70
2023-04-25T17:34:24.039Z,9.38
2023-04-25T17:36:52.153Z,45.78
2023-04-25T17:39:20.079Z,26.73
2023-04-25T17:41:47.153Z,45.28
2023-04-25T17:44:14.482Z,40.80
2023-04-25T17:46:41.985Z,42.45
2023-04-25T17:49:12.490Z,26.15
2023-04-25T17:51:39.964Z,9.43
2023-04-25T17:54:07.008Z,20.70
2023-04-25T17:56:37.887Z,10.73
2023-04-25T17:59:05.112Z,14.60
2023-04-25T18:01:32.484Z,8.75
2023-04-25T18:04:05.474Z,11.43
2023-04-25T18:06:33.197Z,4.35
2023-04-25T18:09:02.113Z,4.95
2023-04-25T18:11:29.871Z,25.02
2023-04-25T18:13:56.986Z,7.30
2023-04-25T18:16:24.040Z,8.73
2023-04-25T18:18:53.737Z,5.75
2023-04-25T18:21:22.231Z,5.85
2023-04-25T18:23:49.300Z,4.22
2023-04-25T18:26:16.385Z,9.52
2023-04-25T18:28:43.988Z,4.35
2023-04-25T18:31:11.747Z,4.32
2023-04-25T18:33:40.102Z,4.50
2023-04-25T18:36:07.460Z,5.93
2023-04-25T18:38:36.016Z,4.63
2023-04-25T18:41:26.952Z,7.03
2023-04-25T18:43:55.253Z,7.00
2023-04-25T18:46:25.512Z,4.63
2023-04-25T18:48:54.133Z,4.80
2023-04-25T18:51:31.902Z,9.00
2023-04-25T18:53:59.476Z,9.20
2023-04-25T18:56:27.548Z,6.63
2023-04-25T18:58:55.852Z,5.38
2023-04-25T19:01:25.302Z,5.28
2023-04-25T19:03:57.644Z,6.22
2023-04-25T19:06:28.067Z,7.78
2023-04-25T19:08:57.770Z,4.38
2023-04-25T19:11:27.379Z,3.88
2023-04-25T19:13:59.233Z,7.65
2023-04-25T19:16:30.497Z,4.95
2023-04-25T19:18:57.673Z,3.58
2023-04-25T19:21:24.693Z,5.00
2023-04-25T19:23:54.332Z,3.95
2023-04-25T19:26:22.417Z,5.80
2023-04-25T19:29:04.998Z,4.70
2023-04-25T19:31:33.437Z,4.43
2023-04-25T19:34:00.611Z,4.07
2023-04-25T19:36:28.814Z,5.68
2023-04-25T19:39:02.035Z,3.15
2023-04-25T19:41:30.118Z,9.18
2023-04-25T19:43:57.143Z,7.07
2023-04-25T19:46:24.702Z,5.32
2023-04-25T19:48:52.030Z,5.13
2023-04-25T19:51:19.068Z,10.65
2023-04-25T19:53:45.991Z,7.10
2023-04-25T19:56:13.188Z,7.53
2023-04-25T19:58:40.341Z,6.22
2023-04-25T20:01:07.723Z,6.78
2023-04-25T20:03:34.880Z,8.18
2023-04-25T20:06:01.956Z,5.50
2023-04-25T20:08:28.931Z,6.63
2023-04-25T20:10:55.881Z,8.13
2023-04-25T20:13:22.810Z,4.50
2023-04-25T20:15:49.950Z,7.13
2023-04-25T20:18:16.986Z,5.35
2023-04-25T20:20:43.956Z,7.45
2023-04-25T20:23:11.903Z,5.43
2023-04-25T20:25:39.176Z,5.70
2023-04-25T20:28:06.261Z,5.88
2023-04-25T20:30:33.186Z,3.75
2023-04-25T20:33:01.568Z,4.97
2023-04-25T20:35:28.598Z,3.65
2023-04-25T20:37:55.629Z,3.88
2023-04-25T20:40:22.644Z,4.10
2023-04-25T20:42:49.753Z,3.75
2023-04-25T20:45:16.759Z,3.17
2023-04-25T20:47:44.550Z,3.00
2023-04-25T20:50:12.161Z,3.58
2023-04-25T20:52:39.126Z,4.80
2023-04-25T20:55:07.510Z,4.18
2023-04-25T20:57:34.455Z,3.45
2023-04-25T21:00:01.424Z,7.13
2023-04-25T21:02:29.992Z,4.30
2023-04-25T21:04:56.974Z,3.88
2023-04-25T21:07:23.952Z,3.88
2023-04-25T21:09:51.785Z,4.47
2023-04-25T21:12:18.739Z,5.20
2023-04-25T21:14:45.697Z,4.80
2023-04-25T21:17:12.668Z,6.28
2023-04-25T21:19:39.632Z,3.50
2023-04-25T21:22:07.219Z,3.40
2023-04-25T21:24:34.545Z,5.57
2023-04-25T21:27:01.518Z,6.13
2023-04-25T21:29:28.592Z,4.00
2023-04-25T21:31:56.842Z,4.97
2023-04-25T21:34:23.907Z,3.88
2023-04-25T21:36:50.853Z,6.78
2023-04-25T21:39:17.800Z,5.20
2023-04-25T21:41:44.755Z,5.05
2023-04-25T21:44:12.712Z,3.42
2023-04-25T21:46:39.809Z,3.03
2023-04-25T21:49:07.202Z,2.83
2023-04-25T21:51:34.288Z,3.47
2023-04-25T21:54:05.281Z,3.47
2023-04-25T21:56:33.103Z,3.78
2023-04-25T21:59:00.114Z,5.72
2023-04-25T22:01:27.895Z,2.88
2023-04-25T22:03:55.308Z,2.72
2023-04-25T22:06:22.449Z,5.68
2023-04-25T22:08:50.570Z,2.78
2023-04-25T22:11:17.636Z,3.88
2023-04-25T22:13:45.510Z,2.22
2023-04-25T22:16:12.646Z,4.10
2023-04-25T22:18:40.482Z,4.22
2023-04-25T22:21:08.631Z,4.30
2023-04-25T22:23:37.233Z,3.95
2023-04-25T22:26:05.315Z,4.88
2023-04-25T22:28:33.842Z,3.53
2023-04-25T22:31:00.984Z,3.60
2023-04-25T22:33:28.126Z,3.10
2023-04-25T22:35:55.094Z,3.92
2023-04-25T22:38:22.107Z,4.43
2023-04-25T22:40:49.080Z,3.70
2023-04-25T22:43:16.748Z,6.65
2023-04-25T22:45:43.752Z,7.25
2023-04-25T22:48:10.962Z,2.13
2023-04-25T22:50:40.435Z,3.50
2023-04-25T22:53:10.204Z,1.55
2023-04-25T22:55:38.159Z,2.80
2023-04-25T22:58:08.260Z,2.47
2023-04-25T23:00:37.745Z,3.03
2023-04-25T23:03:05.784Z,1.80
2023-04-25T23:05:33.243Z,1.80
2023-04-25T23:08:00.324Z,5.78
2023-04-25T23:10:28.516Z,3.75
2023-04-25T23:12:58.166Z,2.35
2023-04-25T23:15:27.616Z,2.45
2023-04-25T23:17:54.855Z,2.45
2023-04-25T23:20:21.826Z,2.22
2023-04-25T23:22:49.649Z,1.27
2023-04-25T23:25:17.411Z,2.05
2023-04-25T23:27:45.028Z,2.58
2023-04-25T23:30:12.781Z,1.75
2023-04-25T23:32:40.214Z,1.77
2023-04-25T23:35:07.729Z,2.28
2023-04-25T23:37:35.944Z,1.30
2023-04-25T23:40:13.579Z,2.85
2023-04-25T23:42:41.689Z,1.92
2023-04-25T23:45:09.468Z,2.15
2023-04-25T23:47:36.776Z,1.30
2023-04-25T23:50:04.318Z,1.75
2023-04-25T23:52:32.409Z,3.67
2023-04-25T23:54:59.416Z,1.88
2023-04-25T23:57:26.897Z,3.42
2023-04-25T23:59:54.084Z,0.90
